Time;durP1;ratioP1;P1;durP2;ratioP2;P2;SDS_P1;SDS_P2;PMS_P1;PMS_P2;Temp;Humidity;BMP_temperature;BMP_pressure;BME280_temperature;BME280_humidity;BME280_pressure;Samples;Min_cycle;Max_cycle;Signal;HPM_P1;HPM_P2
2021/01/07 00:02:18;;;;;;;10.55;5.47;;;;;;;;;;5029756;28;20534;-71
2021/01/07 00:04:44;;;;;;;7.32;4.90;;;;;;;;;;5033229;28;20480;-73
2021/01/07 00:07:10;;;;;;;8.10;5.30;;;;;;;;;;5034609;28;20017;-71
2021/01/07 00:09:36;;;;;;;9.05;5.05;;;;;;;;;;5034465;28;20025;-70
2021/01/07 00:12:02;;;;;;;7.40;4.63;;;;;;;;;;5034338;28;20025;-70
2021/01/07 00:14:28;;;;;;;7.88;4.78;;;;;;;;;;5033011;28;20026;-72
2021/01/07 00:16:54;;;;;;;7.80;4.63;;;;;;;;;;5034445;28;20013;-71
2021/01/07 00:19:20;;;;;;;6.80;4.70;;;;;;;;;;5034413;28;20094;-72
2021/01/07 00:21:46;;;;;;;6.88;4.47;;;;;;;;;;5034360;28;20053;-71
2021/01/07 00:24:12;;;;;;;8.27;4.18;;;;;;;;;;5034547;28;20030;-72
2021/01/07 00:26:38;;;;;;;7.90;4.00;;;;;;;;;;5034433;28;20057;-71
2021/01/07 00:29:06;;;;;;;6.22;4.25;;;;;;;;;;5034301;28;20041;-71
2021/01/07 00:31:32;;;;;;;7.07;4.22;;;;;;;;;;5034150;28;20617;-72
2021/01/07 00:33:58;;;;;;;10.95;3.88;;;;;;;;;;5034298;28;20022;-69
2021/01/07 00:36:24;;;;;;;8.73;4.07;;;;;;;;;;5033895;28;20088;-73
2021/01/07 00:38:50;;;;;;;5.68;3.30;;;;;;;;;;5033964;28;20525;-72
2021/01/07 00:41:19;;;;;;;6.53;3.83;;;;;;;;;;5033868;28;20104;-72
2021/01/07 00:43:45;;;;;;;5.78;3.53;;;;;;;;;;5032609;28;20028;-71
2021/01/07 00:46:12;;;;;;;7.15;3.92;;;;;;;;;;5033853;28;20021;-70
2021/01/07 00:48:38;;;;;;;6.03;3.58;;;;;;;;;;5033876;28;20032;-72
2021/01/07 00:51:06;;;;;;;4.35;2.92;;;;;;;;;;5033862;28;20504;-71
2021/01/07 00:53:32;;;;;;;5.10;3.00;;;;;;;;;;5033643;28;20477;-74
2021/01/07 00:55:58;;;;;;;8.98;3.13;;;;;;;;;;5033555;28;20017;-75
2021/01/07 00:58:24;;;;;;;5.63;3.15;;;;;;;;;;5049317;28;20083;-75
2021/01/07 01:00:50;;;;;;;11.55;3.58;;;;;;;;;;5053639;28;20056;-75
2021/01/07 01:03:16;;;;;;;4.60;2.72;;;;;;;;;;5053025;28;20021;-75
2021/01/07 01:05:42;;;;;;;7.68;2.83;;;;;;;;;;5053268;28;20032;-75
2021/01/07 01:08:08;;;;;;;5.75;2.78;;;;;;;;;;5053120;28;20053;-74
2021/01/07 01:10:35;;;;;;;7.15;2.72;;;;;;;;;;5053552;28;20100;-75
2021/01/07 01:13:01;;;;;;;5.47;2.47;;;;;;;;;;5051656;28;20484;-75
2021/01/07 01:15:27;;;;;;;8.40;2.88;;;;;;;;;;5052321;28;20025;-75
2021/01/07 01:17:53;;;;;;;6.10;2.70;;;;;;;;;;5051878;28;20018;-75
2021/01/07 01:20:19;;;;;;;6.28;2.60;;;;;;;;;;5053223;28;20081;-75
2021/01/07 01:22:45;;;;;;;5.20;2.40;;;;;;;;;;5053272;28;20053;-75
2021/01/07 01:25:12;;;;;;;3.75;2.35;;;;;;;;;;5053297;28;20032;-75
2021/01/07 01:27:40;;;;;;;4.32;2.35;;;;;;;;;;5052965;28;20021;-76
2021/01/07 01:30:06;;;;;;;6.70;2.63;;;;;;;;;;5053027;28;20495;-76
2021/01/07 01:32:34;;;;;;;5.40;2.60;;;;;;;;;;5051648;28;20039;-76
2021/01/07 01:35:01;;;;;;;5.30;2.40;;;;;;;;;;5051834;28;20021;-76
2021/01/07 01:37:27;;;;;;;4.57;2.35;;;;;;;;;;5051811;28;20055;-75
2021/01/07 01:39:53;;;;;;;5.82;2.03;;;;;;;;;;5052873;28;20029;-76
2021/01/07 01:42:25;;;;;;;5.97;2.40;;;;;;;;;;5053074;28;20399;-76
2021/01/07 01:44:55;;;;;;;4.47;2.53;;;;;;;;;;5051631;28;20021;-76
2021/01/07 01:47:21;;;;;;;6.38;2.30;;;;;;;;;;5046329;28;20029;-75
2021/01/07 01:49:48;;;;;;;4.40;2.50;;;;;;;;;;5037630;28;20033;-75
2021/01/07 01:52:14;;;;;;;6.25;2.30;;;;;;;;;;5031636;28;20026;-75
2021/01/07 01:54:40;;;;;;;10.57;2.53;;;;;;;;;;5050747;28;20029;-75
2021/01/07 01:57:07;;;;;;;5.45;2.00;;;;;;;;;;5051798;28;20013;-75
2021/01/07 01:59:34;;;;;;;5.25;2.28;;;;;;;;;;5051798;28;20037;-75
2021/01/07 02:02:14;;;;;;;4.10;2.25;;;;;;;;;;5052510;28;20017;-74
2021/01/07 02:04:41;;;;;;;5.40;2.03;;;;;;;;;;5051054;28;20023;-75
2021/01/07 02:07:08;;;;;;;8.55;2.28;;;;;;;;;;5051095;28;20028;-75
2021/01/07 02:09:35;;;;;;;4.15;1.85;;;;;;;;;;5050896;28;20036;-75
2021/01/07 02:12:01;;;;;;;6.22;1.95;;;;;;;;;;5052412;28;20029;-75
2021/01/07 02:14:28;;;;;;;5.35;2.50;;;;;;;;;;5050916;28;20047;-75
2021/01/07 02:16:57;;;;;;;3.67;2.08;;;;;;;;;;5052227;28;20031;-75
2021/01/07 02:19:23;;;;;;;4.90;2.00;;;;;;;;;;5050788;28;20127;-75
2021/01/07 02:21:49;;;;;;;5.95;2.10;;;;;;;;;;5052278;28;20353;-75
2021/01/07 02:24:17;;;;;;;5.28;1.80;;;;;;;;;;5051829;28;20032;-75
2021/01/07 02:26:43;;;;;;;3.63;1.90;;;;;;;;;;5049946;28;20130;-75
2021/01/07 02:29:10;;;;;;;3.60;1.60;;;;;;;;;;5051310;28;20037;-75
2021/01/07 02:31:36;;;;;;;4.28;2.00;;;;;;;;;;5049891;28;20024;-75
2021/01/07 02:34:02;;;;;;;5.60;1.80;;;;;;;;;;5050202;28;20024;-75
2021/01/07 02:36:28;;;;;;;6.28;2.10;;;;;;;;;;5051129;28;20044;-75
2021/01/07 02:38:54;;;;;;;5.30;1.80;;;;;;;;;;5050960;28;20033;-75
2021/01/07 02:41:20;;;;;;;4.70;2.10;;;;;;;;;;5046942;28;20032;-75
2021/01/07 02:43:46;;;;;;;3.47;1.98;;;;;;;;;;5031001;28;20010;-75
2021/01/07 02:46:12;;;;;;;5.25;1.95;;;;;;;;;;5031057;28;20026;-75
2021/01/07 02:48:38;;;;;;;3.65;1.95;;;;;;;;;;5031328;28;20017;-75
2021/01/07 02:51:04;;;;;;;5.20;1.80;;;;;;;;;;5038820;28;20024;-76
2021/01/07 02:53:31;;;;;;;3.85;1.92;;;;;;;;;;5050943;28;20032;-75
2021/01/07 02:55:57;;;;;;;3.50;1.77;;;;;;;;;;5051001;28;20017;-76
2021/01/07 02:58:23;;;;;;;6.05;1.85;;;;;;;;;;5049063;28;20554;-76
2021/01/07 03:00:49;;;;;;;9.02;2.22;;;;;;;;;;5049708;28;20396;-76
2021/01/07 03:03:15;;;;;;;5.10;2.22;;;;;;;;;;5050405;28;20499;-76
2021/01/07 03:05:41;;;;;;;5.03;2.00;;;;;;;;;;5049461;28;20040;-76
2021/01/07 03:08:07;;;;;;;4.80;1.90;;;;;;;;;;5049556;28;20017;-76
2021/01/07 03:10:33;;;;;;;4.88;1.70;;;;;;;;;;5049560;28;20035;-76
2021/01/07 03:12:59;;;;;;;6.05;1.95;;;;;;;;;;5049532;28;20017;-76
2021/01/07 03:15:25;;;;;;;5.65;2.30;;;;;;;;;;5050852;28;20021;-75
2021/01/07 03:17:51;;;;;;;3.35;1.80;;;;;;;;;;5050720;28;20028;-76
2021/01/07 03:20:18;;;;;;;6.18;1.90;;;;;;;;;;5050720;28;20032;-75
2021/01/07 03:22:44;;;;;;;3.95;2.13;;;;;;;;;;5050085;28;20018;-76
2021/01/07 03:25:11;;;;;;;4.72;1.95;;;;;;;;;;5051563;28;20021;-76
2021/01/07 03:27:37;;;;;;;5.32;1.92;;;;;;;;;;5051398;28;20100;-75
2021/01/07 03:30:05;;;;;;;4.65;2.22;;;;;;;;;;5049765;28;20487;-75
2021/01/07 03:32:31;;;;;;;3.63;1.92;;;;;;;;;;5051156;28;20029;-75
2021/01/07 03:34:57;;;;;;;3.78;2.00;;;;;;;;;;5051183;28;20021;-76
2021/01/07 03:37:23;;;;;;;3.70;1.83;;;;;;;;;;5049715;28;20103;-75
2021/01/07 03:39:49;;;;;;;3.30;1.67;;;;;;;;;;5052297;28;20399;-76
2021/01/07 03:42:15;;;;;;;3.97;2.13;;;;;;;;;;5055250;28;20100;-75
2021/01/07 03:44:41;;;;;;;4.40;1.80;;;;;;;;;;5055317;28;20024;-75
2021/01/07 03:47:07;;;;;;;9.48;2.20;;;;;;;;;;5055240;28;20021;-75
2021/01/07 03:49:33;;;;;;;4.18;1.80;;;;;;;;;;5053583;28;20029;-76
2021/01/07 03:51:59;;;;;;;3.08;1.73;;;;;;;;;;5053571;28;20044;-76
2021/01/07 03:54:25;;;;;;;3.97;1.92;;;;;;;;;;5053726;28;20484;-75
2021/01/07 03:56:52;;;;;;;4.22;2.33;;;;;;;;;;5054899;28;20025;-76
2021/01/07 03:59:18;;;;;;;3.88;1.92;;;;;;;;;;5054842;28;20098;-76
2021/01/07 04:01:44;;;;;;;5.45;1.95;;;;;;;;;;5053679;28;20021;-76
2021/01/07 04:04:10;;;;;;;4.30;1.80;;;;;;;;;;5053877;28;20450;-76
2021/01/07 04:06:36;;;;;;;4.30;2.28;;;;;;;;;;5054897;28;20350;-75
2021/01/07 04:09:04;;;;;;;4.35;2.00;;;;;;;;;;5054919;28;20029;-76
2021/01/07 04:11:30;;;;;;;3.97;1.83;;;;;;;;;;5054737;28;20025;-76
2021/01/07 04:13:56;;;;;;;4.40;1.80;;;;;;;;;;5054788;28;20028;-76
2021/01/07 04:16:22;;;;;;;3.40;1.80;;;;;;;;;;5054789;28;20119;-75
2021/01/07 04:18:48;;;;;;;4.25;2.08;;;;;;;;;;5053391;28;20091;-75
2021/01/07 04:21:17;;;;;;;3.80;1.85;;;;;;;;;;5053253;28;20480;-76
2021/01/07 04:23:43;;;;;;;3.55;2.08;;;;;;;;;;5053235;28;20031;-76
2021/01/07 04:26:09;;;;;;;3.60;1.92;;;;;;;;;;5054404;28;20056;-76
2021/01/07 04:28:35;;;;;;;3.67;1.77;;;;;;;;;;5053180;28;20036;-75
2021/01/07 04:31:01;;;;;;;3.60;1.98;;;;;;;;;;5054368;28;20085;-76
2021/01/07 04:33:27;;;;;;;3.50;1.88;;;;;;;;;;5053192;28;20017;-76
2021/01/07 04:35:53;;;;;;;5.53;2.00;;;;;;;;;;5054159;28;20032;-75
2021/01/07 04:38:19;;;;;;;5.25;1.90;;;;;;;;;;5054034;28;20079;-76
2021/01/07 04:40:45;;;;;;;3.80;1.80;;;;;;;;;;5053035;28;20029;-75
2021/01/07 04:43:11;;;;;;;3.55;1.90;;;;;;;;;;5054314;28;20021;-76
2021/01/07 04:45:37;;;;;;;3.10;1.70;;;;;;;;;;5051395;28;20037;-75
2021/01/07 04:48:04;;;;;;;3.58;1.88;;;;;;;;;;5052519;28;20041;-76
2021/01/07 04:50:30;;;;;;;5.05;1.80;;;;;;;;;;5052647;28;20036;-75
2021/01/07 04:52:56;;;;;;;3.10;1.83;;;;;;;;;;5053990;28;20045;-76
2021/01/07 04:55:22;;;;;;;4.43;1.92;;;;;;;;;;5053966;28;20028;-76
2021/01/07 04:57:48;;;;;;;4.80;2.22;;;;;;;;;;5053765;28;20028;-76
2021/01/07 05:00:14;;;;;;;3.95;2.15;;;;;;;;;;5052347;28;20124;-75
2021/01/07 05:02:40;;;;;;;4.03;2.00;;;;;;;;;;5053718;28;20055;-76
2021/01/07 05:05:07;;;;;;;3.55;1.88;;;;;;;;;;5053811;28;20036;-75
2021/01/07 05:07:38;;;;;;;4.28;1.80;;;;;;;;;;5053820;28;20028;-76
2021/01/07 05:10:05;;;;;;;3.67;2.05;;;;;;;;;;5053678;28;20100;-75
2021/01/07 05:12:31;;;;;;;3.03;1.55;;;;;;;;;;5053700;28;20057;-75
2021/01/07 05:14:57;;;;;;;3.47;2.08;;;;;;;;;;5052116;28;20021;-75
2021/01/07 05:17:23;;;;;;;3.30;1.80;;;;;;;;;;5051865;28;20124;-76
2021/01/07 05:19:49;;;;;;;3.72;2.05;;;;;;;;;;5053245;28;20086;-75
2021/01/07 05:22:15;;;;;;;4.95;1.90;;;;;;;;;;5051918;28;20020;-76
2021/01/07 05:24:41;;;;;;;3.67;1.92;;;;;;;;;;5053440;28;20040;-75
2021/01/07 05:27:12;;;;;;;4.50;2.20;;;;;;;;;;5053356;28;20021;-76
2021/01/07 05:29:41;;;;;;;4.28;1.92;;;;;;;;;;5053176;28;20500;-75
2021/01/07 05:32:08;;;;;;;3.17;1.80;;;;;;;;;;5053275;28;20079;-75
2021/01/07 05:34:50;;;;;;;3.95;1.90;;;;;;;;;;5053158;28;20036;-76
2021/01/07 05:37:17;;;;;;;3.85;2.08;;;;;;;;;;5051734;28;20557;-75
2021/01/07 05:39:44;;;;;;;4.28;1.80;;;;;;;;;;5051632;28;20033;-76
2021/01/07 05:42:11;;;;;;;4.75;1.95;;;;;;;;;;5051796;28;20548;-75
2021/01/07 05:44:41;;;;;;;3.30;1.63;;;;;;;;;;5053090;28;20033;-75
2021/01/07 05:47:07;;;;;;;3.65;1.80;;;;;;;;;;5051745;28;20392;-75
2021/01/07 05:49:37;;;;;;;3.65;2.03;;;;;;;;;;5052853;28;20031;-76
2021/01/07 05:52:05;;;;;;;3.78;2.03;;;;;;;;;;5051657;28;20056;-76
2021/01/07 05:54:33;;;;;;;4.55;1.88;;;;;;;;;;5051387;28;20039;-75
2021/01/07 05:57:02;;;;;;;4.82;1.83;;;;;;;;;;5052116;28;20017;-75
2021/01/07 05:59:31;;;;;;;3.88;2.00;;;;;;;;;;5050637;28;20068;-75
2021/01/07 06:01:57;;;;;;;4.78;1.90;;;;;;;;;;5051643;28;20096;-75
2021/01/07 06:04:24;;;;;;;4.07;1.92;;;;;;;;;;5051938;28;20108;-76
2021/01/07 06:06:50;;;;;;;3.30;1.70;;;;;;;;;;5051895;28;20031;-76
2021/01/07 06:09:16;;;;;;;3.55;1.80;;;;;;;;;;5051736;28;20500;-76
2021/01/07 06:11:43;;;;;;;4.03;1.90;;;;;;;;;;5051832;28;20372;-75
2021/01/07 06:14:09;;;;;;;3.10;1.58;;;;;;;;;;5051680;28;20017;-75
2021/01/07 06:16:35;;;;;;;3.70;1.80;;;;;;;;;;5050722;28;20021;-76
2021/01/07 06:19:20;;;;;;;3.17;1.52;;;;;;;;;;5052056;28;20033;-76
2021/01/07 06:21:49;;;;;;;4.20;2.03;;;;;;;;;;5052015;28;20083;-75
2021/01/07 06:24:16;;;;;;;5.65;1.85;;;;;;;;;;5052197;28;20049;-75
2021/01/07 06:26:45;;;;;;;3.22;1.90;;;;;;;;;;5052158;28;20103;-76
2021/01/07 06:29:12;;;;;;;3.08;1.52;;;;;;;;;;5051894;28;20387;-75
2021/01/07 06:31:38;;;;;;;4.38;1.63;;;;;;;;;;5050496;28;20021;-75
2021/01/07 06:34:05;;;;;;;3.50;1.63;;;;;;;;;;5052123;28;20013;-76
2021/01/07 06:36:37;;;;;;;4.13;1.70;;;;;;;;;;5051715;28;20400;-75
2021/01/07 06:39:06;;;;;;;3.70;1.75;;;;;;;;;;5051968;28;20055;-76
2021/01/07 06:41:32;;;;;;;3.72;1.80;;;;;;;;;;5051890;28;20025;-76
2021/01/07 06:43:59;;;;;;;3.42;1.83;;;;;;;;;;5051694;28;20033;-75
2021/01/07 06:46:41;;;;;;;3.53;1.60;;;;;;;;;;5048525;28;20032;-76
2021/01/07 06:49:16;;;;;;;4.00;1.90;;;;;;;;;;5051768;28;20035;-76
2021/01/07 06:51:47;;;;;;;5.05;2.15;;;;;;;;;;5050248;28;20418;-76
2021/01/07 06:54:13;;;;;;;4.18;1.80;;;;;;;;;;5051789;28;20021;-75
2021/01/07 06:56:40;;;;;;;4.15;1.77;;;;;;;;;;5050312;28;20028;-75
2021/01/07 06:59:07;;;;;;;5.00;2.03;;;;;;;;;;5051536;28;20082;-75
2021/01/07 07:01:34;;;;;;;3.72;1.80;;;;;;;;;;5051157;28;20036;-75
2021/01/07 07:04:03;;;;;;;3.63;1.63;;;;;;;;;;5047814;28;20029;-75
2021/01/07 07:06:29;;;;;;;4.85;1.70;;;;;;;;;;5038876;28;20476;-75
2021/01/07 07:08:55;;;;;;;4.32;1.88;;;;;;;;;;5051582;28;20063;-75
2021/01/07 07:11:31;;;;;;;7.30;1.50;;;;;;;;;;5037242;28;20020;-75
2021/01/07 07:14:03;;;;;;;4.15;1.65;;;;;;;;;;5030665;28;20022;-75
2021/01/07 07:16:32;;;;;;;4.55;1.52;;;;;;;;;;5030115;28;20021;-75
2021/01/07 07:18:58;;;;;;;5.88;1.60;;;;;;;;;;5031223;28;20037;-75
2021/01/07 07:21:24;;;;;;;4.53;1.60;;;;;;;;;;5031275;28;20025;-75
2021/01/07 07:23:52;;;;;;;3.95;1.85;;;;;;;;;;5045634;28;20028;-75
2021/01/07 07:26:30;;;;;;;2.53;1.30;;;;;;;;;;5049814;28;20040;-74
2021/01/07 07:28:57;;;;;;;2.80;1.48;;;;;;;;;;5054455;28;20029;-75
2021/01/07 07:31:36;;;;;;;4.18;1.70;;;;;;;;;;5054586;28;20033;-75
2021/01/07 07:34:02;;;;;;;3.72;1.80;;;;;;;;;;5050224;28;20025;-75
2021/01/07 07:36:32;;;;;;;3.67;1.73;;;;;;;;;;5065419;28;20120;-75
2021/01/07 07:38:58;;;;;;;3.33;1.38;;;;;;;;;;5053999;28;20064;-75
2021/01/07 07:41:27;;;;;;;4.88;1.38;;;;;;;;;;5049270;28;20016;-75
2021/01/07 07:43:56;;;;;;;7.10;1.75;;;;;;;;;;5053057;28;20020;-75
2021/01/07 07:46:26;;;;;;;10.45;2.00;;;;;;;;;;5051601;28;20024;-75
2021/01/07 07:48:59;;;;;;;6.97;1.63;;;;;;;;;;5065803;28;20028;-74
2021/01/07 07:51:25;;;;;;;3.38;1.48;;;;;;;;;;5055531;28;20107;-75
2021/01/07 07:54:01;;;;;;;9.60;2.08;;;;;;;;;;5058966;28;20021;-75
2021/01/07 07:56:27;;;;;;;9.88;2.83;;;;;;;;;;5064653;28;20025;-76
2021/01/07 07:59:04;;;;;;;9.73;2.00;;;;;;;;;;5066164;28;20029;-76
2021/01/07 08:01:49;;;;;;;7.18;1.60;;;;;;;;;;5049297;28;20036;-76
2021/01/07 08:04:19;;;;;;;5.97;1.48;;;;;;;;;;5059027;28;20031;-75
2021/01/07 08:06:46;;;;;;;3.97;1.45;;;;;;;;;;5051786;28;20025;-76
2021/01/07 08:09:16;;;;;;;3.67;1.50;;;;;;;;;;5065967;28;20067;-76
2021/01/07 08:11:43;;;;;;;5.90;1.70;;;;;;;;;;5058797;28;20099;-76
2021/01/07 08:14:10;;;;;;;5.57;1.77;;;;;;;;;;5056854;28;20542;-76
2021/01/07 08:16:37;;;;;;;4.35;1.55;;;;;;;;;;5045319;28;20033;-75
2021/01/07 08:19:13;;;;;;;5.57;1.52;;;;;;;;;;5048141;28;20033;-76
2021/01/07 08:21:49;;;;;;;3.05;1.52;;;;;;;;;;5048201;28;20035;-76
2021/01/07 08:24:16;;;;;;;5.40;1.27;;;;;;;;;;5050247;28;20017;-76
2021/01/07 08:26:45;;;;;;;5.07;1.70;;;;;;;;;;5053978;28;20147;-76
2021/01/07 08:29:11;;;;;;;3.42;1.40;;;;;;;;;;5053917;28;20025;-76
2021/01/07 08:31:46;;;;;;;6.20;1.73;;;;;;;;;;5050838;28;20021;-76
2021/01/07 08:34:13;;;;;;;5.28;1.42;;;;;;;;;;5050541;28;20032;-76
2021/01/07 08:36:39;;;;;;;3.03;1.40;;;;;;;;;;5052042;28;20045;-76
2021/01/07 08:39:05;;;;;;;11.98;1.63;;;;;;;;;;5052561;28;20037;-76
2021/01/07 08:41:32;;;;;;;8.70;1.67;;;;;;;;;;5052559;28;20539;-76
2021/01/07 08:44:01;;;;;;;11.05;1.38;;;;;;;;;;5053798;28;20086;-76
2021/01/07 08:46:41;;;;;;;10.43;1.50;;;;;;;;;;5052898;28;20028;-76
2021/01/07 08:49:07;;;;;;;3.15;1.30;;;;;;;;;;5052503;28;20033;-75
2021/01/07 08:51:41;;;;;;;6.32;1.25;;;;;;;;;;5049838;28;20029;-76
2021/01/07 08:54:16;;;;;;;8.50;1.52;;;;;;;;;;5052059;28;20025;-76
2021/01/07 08:56:43;;;;;;;7.50;1.58;;;;;;;;;;5053746;28;20439;-75
2021/01/07 08:59:21;;;;;;;9.70;1.30;;;;;;;;;;5051998;28;20136;-75
2021/01/07 09:01:48;;;;;;;5.85;1.70;;;;;;;;;;5052005;28;20029;-76
2021/01/07 09:04:31;;;;;;;5.20;1.40;;;;;;;;;;5053212;28;20033;-75
2021/01/07 09:07:03;;;;;;;4.30;1.35;;;;;;;;;;5052476;28;20103;-75
2021/01/07 09:09:39;;;;;;;4.47;1.20;;;;;;;;;;5052321;28;20029;-75
2021/01/07 09:12:11;;;;;;;5.45;1.20;;;;;;;;;;5039832;28;20530;-75
2021/01/07 09:14:47;;;;;;;3.90;1.52;;;;;;;;;;5053434;28;20025;-76
2021/01/07 09:17:14;;;;;;;4.72;1.25;;;;;;;;;;5053494;28;20096;-76
2021/01/07 09:19:40;;;;;;;6.90;1.30;;;;;;;;;;5052799;28;20033;-75
2021/01/07 09:22:06;;;;;;;3.05;1.05;;;;;;;;;;5036196;28;20026;-75
2021/01/07 09:24:37;;;;;;;2.65;1.10;;;;;;;;;;5035056;28;20022;-77
2021/01/07 09:27:09;;;;;;;2.85;1.20;;;;;;;;;;5053134;28;20021;-76
2021/01/07 09:29:35;;;;;;;;;;;;;;;;;;5052131;28;20431;-75
2021/01/07 09:32:01;;;;;;;4.07;1.17;;;;;;;;;;5052985;28;20352;-75
2021/01/07 09:34:27;;;;;;;4.57;1.15;;;;;;;;;;5052904;28;20062;-75
2021/01/07 09:36:54;;;;;;;2.35;1.08;;;;;;;;;;5048076;28;20068;-74
2021/01/07 09:39:20;;;;;;;2.80;1.23;;;;;;;;;;5032849;28;20378;-75
2021/01/07 09:41:46;;;;;;;1.73;1.02;;;;;;;;;;5032953;28;20032;-75
2021/01/07 09:44:12;;;;;;;5.68;1.40;;;;;;;;;;5031621;28;20021;-75
2021/01/07 09:46:38;;;;;;;3.80;1.30;;;;;;;;;;5031368;28;20048;-75
2021/01/07 09:49:05;;;;;;;5.03;1.63;;;;;;;;;;5032500;28;20037;-74
2021/01/07 09:51:32;;;;;;;6.22;1.10;;;;;;;;;;5031515;28;20068;-76
2021/01/07 09:53:58;;;;;;;3.30;1.30;;;;;;;;;;5032631;28;20022;-76
2021/01/07 09:56:24;;;;;;;4.65;1.05;;;;;;;;;;5032694;28;20492;-75
2021/01/07 09:58:50;;;;;;;2.75;1.02;;;;;;;;;;5031237;28;20043;-75
2021/01/07 10:01:19;;;;;;;8.10;1.25;;;;;;;;;;5032693;28;20025;-70
2021/01/07 10:03:45;;;;;;;3.00;1.40;;;;;;;;;;5039540;28;20025;-73
2021/01/07 10:06:11;;;;;;;2.75;1.20;;;;;;;;;;5051227;28;20388;-77
2021/01/07 10:08:37;;;;;;;2.92;1.20;;;;;;;;;;5052542;28;20025;-73
2021/01/07 10:11:03;;;;;;;2.10;1.00;;;;;;;;;;5052438;28;20035;-72
2021/01/07 10:13:29;;;;;;;2.22;1.08;;;;;;;;;;5047868;28;20010;-71
2021/01/07 10:15:55;;;;;;;2.47;1.00;;;;;;;;;;5032445;28;20738;-71
2021/01/07 10:18:21;;;;;;;2.65;1.00;;;;;;;;;;5032418;28;20021;-73
2021/01/07 10:20:47;;;;;;;3.13;1.00;;;;;;;;;;5030836;28;20029;-71
2021/01/07 10:23:14;;;;;;;3.47;1.00;;;;;;;;;;5032140;28;20072;-74
2021/01/07 10:25:41;;;;;;;3.03;1.25;;;;;;;;;;5032089;28;20064;-72
2021/01/07 10:28:09;;;;;;;2.15;1.02;;;;;;;;;;5032023;28;20017;-72
2021/01/07 10:30:35;;;;;;;3.63;1.00;;;;;;;;;;5030501;28;20053;-73
2021/01/07 10:33:02;;;;;;;1.85;0.90;;;;;;;;;;5031933;28;20515;-71
2021/01/07 10:35:28;;;;;;;1.90;0.85;;;;;;;;;;5030694;28;20025;-74
2021/01/07 10:37:59;;;;;;;1.73;0.80;;;;;;;;;;5031768;28;20049;-74
2021/01/07 10:40:31;;;;;;;2.40;0.90;;;;;;;;;;5031588;28;20033;-75
2021/01/07 10:42:58;;;;;;;1.83;0.90;;;;;;;;;;5031523;28;20380;-75
2021/01/07 10:45:24;;;;;;;3.20;0.90;;;;;;;;;;5030448;28;20609;-72
2021/01/07 10:47:52;;;;;;;2.03;0.93;;;;;;;;;;5031587;28;20594;-73
2021/01/07 10:50:21;;;;;;;2.65;0.95;;;;;;;;;;5031805;28;20100;-75
2021/01/07 10:53:20;;;;;;;2.65;1.00;;;;;;;;;;5030286;28;20048;-75
2021/01/07 10:55:53;;;;;;;1.95;1.00;;;;;;;;;;5030205;28;20040;-76
2021/01/07 10:58:43;;;;;;;3.85;1.83;;;;;;;;;;5031583;28;20025;-74
2021/01/07 11:01:15;;;;;;;3.13;1.10;;;;;;;;;;5031758;28;20033;-75
2021/01/07 11:03:44;;;;;;;2.17;0.90;;;;;;;;;;5031640;28;20147;-75
2021/01/07 11:06:12;;;;;;;1.52;0.90;;;;;;;;;;5031374;28;20072;-72
2021/01/07 11:08:46;;;;;;;1.80;1.00;;;;;;;;;;5030139;28;20115;-73
2021/01/07 11:11:21;;;;;;;1.40;1.00;;;;;;;;;;5031647;28;20017;-75
2021/01/07 11:13:52;;;;;;;1.80;0.93;;;;;;;;;;5030161;28;20033;-75
2021/01/07 11:16:23;;;;;;;1.50;0.80;;;;;;;;;;5030071;28;20615;-74
2021/01/07 11:18:49;;;;;;;1.67;0.82;;;;;;;;;;5031189;28;20037;-75
2021/01/07 11:21:24;;;;;;;1.83;0.80;;;;;;;;;;5029991;28;20025;-75
2021/01/07 11:23:51;;;;;;;1.88;0.90;;;;;;;;;;5042849;28;20076;-74
2021/01/07 11:26:18;;;;;;;1.65;0.80;;;;;;;;;;5050645;28;20025;-74
2021/01/07 11:28:44;;;;;;;1.30;0.70;;;;;;;;;;5051048;28;20017;-74
2021/01/07 11:31:13;;;;;;;1.90;0.80;;;;;;;;;;5051294;28;20021;-76
2021/01/07 11:33:40;;;;;;;1.35;0.80;;;;;;;;;;5051239;28;20028;-76
2021/01/07 11:36:08;;;;;;;3.03;1.20;;;;;;;;;;5049818;28;20031;-77
2021/01/07 11:38:43;;;;;;;3.72;1.00;;;;;;;;;;5049501;28;20025;-76
2021/01/07 11:41:15;;;;;;;4.60;1.20;;;;;;;;;;5049559;28;20035;-76
2021/01/07 11:43:52;;;;;;;50.08;2.00;;;;;;;;;;5050898;28;20513;-73
2021/01/07 11:46:20;;;;;;;12.70;1.58;;;;;;;;;;5051173;28;20052;-69
2021/01/07 11:48:46;;;;;;;11.50;2.03;;;;;;;;;;5050721;28;20078;-75
2021/01/07 11:51:13;;;;;;;5.80;1.63;;;;;;;;;;5049493;28;20116;-74
2021/01/07 11:53:39;;;;;;;4.68;1.73;;;;;;;;;;5049604;28;20017;-76
2021/01/07 11:56:06;;;;;;;11.55;1.80;;;;;;;;;;5051044;28;20017;-76
2021/01/07 11:58:32;;;;;;;6.30;1.73;;;;;;;;;;5031358;28;20029;-77
2021/01/07 12:01:01;;;;;;;9.18;1.60;;;;;;;;;;5033792;28;20183;-78
2021/01/07 12:03:28;;;;;;;5.97;1.40;;;;;;;;;;5035476;28;20018;-90
2021/01/07 12:05:56;;;;;;;5.05;1.83;;;;;;;;;;5033832;28;20128;-80
2021/01/07 12:08:41;;;;;;;6.13;2.58;;;;;;;;;;5035089;28;20059;-80
2021/01/07 12:11:08;;;;;;;5.07;1.52;;;;;;;;;;5034046;28;20025;-87
2021/01/07 12:13:41;;;;;;;4.38;1.40;;;;;;;;;;5033472;28;20014;-73
2021/01/07 12:16:12;;;;;;;8.38;1.13;;;;;;;;;;5034445;28;20021;-77
2021/01/07 12:18:39;;;;;;;5.07;1.20;;;;;;;;;;5066237;28;20067;-77
2021/01/07 12:21:06;;;;;;;4.20;1.50;;;;;;;;;;5034437;28;20026;-80
2021/01/07 12:23:35;;;;;;;3.65;1.20;;;;;;;;;;5067019;28;20083;-78
2021/01/07 12:26:03;;;;;;;2.78;1.20;;;;;;;;;;5066640;28;20125;-79
2021/01/07 12:28:30;;;;;;;2.28;1.20;;;;;;;;;;5067050;28;20104;-92
2021/01/07 12:30:58;;;;;;;5.78;1.58;;;;;;;;;;5067041;28;20025;-88
2021/01/07 12:33:40;;;;;;;5.03;1.23;;;;;;;;;;5066675;28;20563;-78
2021/01/07 12:36:07;;;;;;;2.63;1.13;;;;;;;;;;5065935;28;20032;-80
2021/01/07 12:38:33;;;;;;;2.95;1.10;;;;;;;;;;5033983;28;20022;-82
2021/01/07 12:41:06;;;;;;;2.30;1.00;;;;;;;;;;5035134;28;20031;-87
2021/01/07 12:43:38;;;;;;;2.58;1.00;;;;;;;;;;5067410;28;20024;-78
2021/01/07 12:46:04;;;;;;;2.78;1.08;;;;;;;;;;5034713;28;20098;-82
2021/01/07 12:48:31;;;;;;;3.38;1.10;;;;;;;;;;5034315;28;20068;-88
2021/01/07 12:50:58;;;;;;;2.25;1.13;;;;;;;;;;5036175;28;20060;-89
2021/01/07 12:53:24;;;;;;;2.17;0.80;;;;;;;;;;5067725;28;20373;-82
2021/01/07 12:55:50;;;;;;;1.80;0.80;;;;;;;;;;5034071;28;20048;-85
2021/01/07 12:58:18;;;;;;;3.03;1.20;;;;;;;;;;5042061;28;20078;-85
2021/01/07 13:00:50;;;;;;;2.30;1.00;;;;;;;;;;5053719;28;20389;-76
2021/01/07 13:03:35;;;;;;;2.00;0.90;;;;;;;;;;5053543;28;20357;-75
2021/01/07 13:06:02;;;;;;;1.40;0.80;;;;;;;;;;5053652;28;20032;-75
2021/01/07 13:08:29;;;;;;;1.70;1.00;;;;;;;;;;5053539;28;20025;-75
2021/01/07 13:10:55;;;;;;;1.65;0.90;;;;;;;;;;5052853;28;20052;-76
2021/01/07 13:13:23;;;;;;;2.65;1.05;;;;;;;;;;5050953;28;20074;-76
2021/01/07 13:15:49;;;;;;;2.58;1.20;;;;;;;;;;5052204;28;20118;-74
2021/01/07 13:18:15;;;;;;;2.92;0.85;;;;;;;;;;5053368;28;20025;-76
2021/01/07 13:20:44;;;;;;;2.80;0.93;;;;;;;;;;5053271;28;20041;-77
2021/01/07 13:23:11;;;;;;;2.88;1.10;;;;;;;;;;5051958;28;20029;-78
2021/01/07 13:25:37;;;;;;;1.88;0.95;;;;;;;;;;5051839;28;20035;-76
2021/01/07 13:28:04;;;;;;;2.33;0.98;;;;;;;;;;5053294;28;20048;-77
2021/01/07 13:30:30;;;;;;;2.55;0.90;;;;;;;;;;5053060;28;20031;-79
2021/01/07 13:32:58;;;;;;;2.25;1.00;;;;;;;;;;5053353;28;20017;-79
2021/01/07 13:35:32;;;;;;;3.30;1.20;;;;;;;;;;5053134;28;20036;-74
2021/01/07 13:37:58;;;;;;;3.42;1.23;;;;;;;;;;5051582;28;20056;-77
2021/01/07 13:40:25;;;;;;;2.00;1.08;;;;;;;;;;5052817;28;20033;-76
2021/01/07 13:42:51;;;;;;;3.47;1.48;;;;;;;;;;5053117;28;20025;-83
2021/01/07 13:45:17;;;;;;;2.60;1.05;;;;;;;;;;5052098;28;20029;-80
2021/01/07 13:47:44;;;;;;;3.65;1.38;;;;;;;;;;5052862;28;20025;-80
2021/01/07 13:50:12;;;;;;;3.20;1.25;;;;;;;;;;5053047;28;20021;-80
2021/01/07 13:52:40;;;;;;;5.07;1.65;;;;;;;;;;5051588;28;20033;-79
2021/01/07 13:55:07;;;;;;;3.53;1.42;;;;;;;;;;5052830;28;20500;-80
2021/01/07 13:57:33;;;;;;;9.27;2.22;;;;;;;;;;5052664;28;20025;-79
2021/01/07 13:59:59;;;;;;;7.38;1.80;;;;;;;;;;5052464;28;20087;-80
2021/01/07 14:02:26;;;;;;;11.30;1.92;;;;;;;;;;5052470;28;20021;-80
2021/01/07 14:04:52;;;;;;;8.02;2.05;;;;;;;;;;5051232;28;20110;-80
2021/01/07 14:07:27;;;;;;;10.27;2.22;;;;;;;;;;5051157;28;20032;-83
2021/01/07 14:10:00;;;;;;;8.18;2.00;;;;;;;;;;5052287;28;20079;-70
2021/01/07 14:12:26;;;;;;;;;;;;;;;;;;5052488;28;20025;-70
2021/01/07 14:14:52;;;;;;;11.48;2.00;;;;;;;;;;5050672;28;19900;-70
2021/01/07 14:17:19;;;;;;;13.48;2.08;;;;;;;;;;5052038;28;20617;-72
2021/01/07 14:19:45;;;;;;;9.48;1.98;;;;;;;;;;5050893;28;20365;-73
2021/01/07 14:22:12;;;;;;;15.43;1.80;;;;;;;;;;5050601;28;20472;-73
2021/01/07 14:24:38;;;;;;;7.60;2.33;;;;;;;;;;5051850;28;20064;-76
2021/01/07 14:27:04;;;;;;;10.45;1.52;;;;;;;;;;5049582;28;20059;-75
2021/01/07 14:29:33;;;;;;;12.70;2.13;;;;;;;;;;5050487;28;20028;-76
2021/01/07 14:32:02;;;;;;;13.23;2.92;;;;;;;;;;5027230;28;20037;-76
2021/01/07 14:34:29;;;;;;;10.38;2.25;;;;;;;;;;5048763;28;20736;-77
2021/01/07 14:37:00;;;;;;;5.97;2.08;;;;;;;;;;5054076;28;20503;-78
2021/01/07 14:39:26;;;;;;;10.40;1.90;;;;;;;;;;5055898;28;20377;-79
2021/01/07 14:41:53;;;;;;;11.00;1.92;;;;;;;;;;5049925;28;20108;-77
2021/01/07 14:44:19;;;;;;;8.40;1.83;;;;;;;;;;5067829;28;20028;-78
2021/01/07 14:46:46;;;;;;;7.53;1.80;;;;;;;;;;5054941;28;20070;-78
2021/01/07 14:49:16;;;;;;;7.53;1.75;;;;;;;;;;5062512;28;20099;-77